sensor_id;sensor_type;location;lat;lon;timestamp;P1;durP1;ratioP1;P2;durP2;ratioP2
44428;SDS011;30134;47.866;-4.222;2023-09-12T00:00:21;112.60;;;70.25;;
44428;SDS011;30134;47.866;-4.222;2023-09-12T00:02:48;105.95;;;73.07;;
44428;SDS011;30134;47.866;-4.222;2023-09-12T00:05:14;95.10;;;61.83;;
44428;SDS011;30134;47.866;-4.222;2023-09-12T00:07:40;77.63;;;51.33;;
44428;SDS011;30134;47.866;-4.222;2023-09-12T00:10:06;69.78;;;46.88;;
44428;SDS011;30134;47.866;-4.222;2023-09-12T00:12:32;67.88;;;44.25;;
44428;SDS011;30134;47.866;-4.222;2023-09-12T00:14:58;57.35;;;40.30;;
44428;SDS011;30134;47.866;-4.222;2023-09-12T00:17:24;54.60;;;37.92;;
44428;SDS011;30134;47.866;-4.222;2023-09-12T00:19:52;51.50;;;35.65;;
44428;SDS011;30134;47.866;-4.222;2023-09-12T00:22:17;49.35;;;34.67;;
44428;SDS011;30134;47.866;-4.222;2023-09-12T00:24:43;45.05;;;31.45;;
44428;SDS011;30134;47.866;-4.222;2023-09-12T00:27:09;46.75;;;30.02;;
44428;SDS011;30134;47.866;-4.222;2023-09-12T00:29:35;43.08;;;28.70;;
44428;SDS011;30134;47.866;-4.222;2023-09-12T00:32:01;39.08;;;27.23;;
44428;SDS011;30134;47.866;-4.222;2023-09-12T00:34:27;36.78;;;25.02;;
44428;SDS011;30134;47.866;-4.222;2023-09-12T00:36:53;38.05;;;25.77;;
44428;SDS011;30134;47.866;-4.222;2023-09-12T00:39:19;36.95;;;25.00;;
44428;SDS011;30134;47.866;-4.222;2023-09-12T00:41:45;34.28;;;22.30;;
44428;SDS011;30134;47.866;-4.222;2023-09-12T00:44:11;33.00;;;21.88;;
44428;SDS011;30134;47.866;-4.222;2023-09-12T00:46:37;32.30;;;20.52;;
44428;SDS011;30134;47.866;-4.222;2023-09-12T00:49:04;27.90;;;19.20;;
44428;SDS011;30134;47.866;-4.222;2023-09-12T00:51:33;26.48;;;18.20;;
44428;SDS011;30134;47.866;-4.222;2023-09-12T00:54:00;26.77;;;17.15;;
44428;SDS011;30134;47.866;-4.222;2023-09-12T00:56:26;25.63;;;16.52;;
44428;SDS011;30134;47.866;-4.222;2023-09-12T00:58:52;25.02;;;17.00;;
44428;SDS011;30134;47.866;-4.222;2023-09-12T01:01:19;23.65;;;16.23;;
44428;SDS011;30134;47.866;-4.222;2023-09-12T01:03:46;25.38;;;15.70;;
44428;SDS011;30134;47.866;-4.222;2023-09-12T01:06:12;20.95;;;15.45;;
44428;SDS011;30134;47.866;-4.222;2023-09-12T01:08:44;22.02;;;14.00;;
44428;SDS011;30134;47.866;-4.222;2023-09-12T01:11:11;18.35;;;12.73;;
44428;SDS011;30134;47.866;-4.222;2023-09-12T01:13:39;20.27;;;12.77;;
44428;SDS011;30134;47.866;-4.222;2023-09-12T01:16:05;17.95;;;12.68;;
44428;SDS011;30134;47.866;-4.222;2023-09-12T01:18:31;17.02;;;11.68;;
44428;SDS011;30134;47.866;-4.222;2023-09-12T01:23:46;16.42;;;10.80;;
44428;SDS011;30134;47.866;-4.222;2023-09-12T01:26:18;15.00;;;10.63;;
44428;SDS011;30134;47.866;-4.222;2023-09-12T01:29:00;60.42;;;44.33;;
44428;SDS011;30134;47.866;-4.222;2023-09-12T01:31:28;201.25;;;145.45;;
44428;SDS011;30134;47.866;-4.222;2023-09-12T01:33:55;214.60;;;154.55;;
44428;SDS011;30134;47.866;-4.222;2023-09-12T01:36:22;185.00;;;135.82;;
44428;SDS011;30134;47.866;-4.222;2023-09-12T01:38:48;164.50;;;122.47;;
44428;SDS011;30134;47.866;-4.222;2023-09-12T01:41:14;141.85;;;105.82;;
44428;SDS011;30134;47.866;-4.222;2023-09-12T01:43:41;123.75;;;94.35;;
44428;SDS011;30134;47.866;-4.222;2023-09-12T01:46:08;124.53;;;90.63;;
44428;SDS011;30134;47.866;-4.222;2023-09-12T01:48:34;117.60;;;87.70;;
44428;SDS011;30134;47.866;-4.222;2023-09-12T01:51:01;105.13;;;77.13;;
44428;SDS011;30134;47.866;-4.222;2023-09-12T01:53:29;97.97;;;72.80;;
44428;SDS011;30134;47.866;-4.222;2023-09-12T01:55:56;86.47;;;65.53;;
44428;SDS011;30134;47.866;-4.222;2023-09-12T01:58:25;83.32;;;62.35;;
44428;SDS011;30134;47.866;-4.222;2023-09-12T02:00:51;84.20;;;62.17;;
44428;SDS011;30134;47.866;-4.222;2023-09-12T02:03:17;74.40;;;56.33;;
44428;SDS011;30134;47.866;-4.222;2023-09-12T02:05:43;72.45;;;54.58;;
44428;SDS011;30134;47.866;-4.222;2023-09-12T02:08:09;72.35;;;53.72;;
44428;SDS011;30134;47.866;-4.222;2023-09-12T02:10:35;64.40;;;49.33;;
44428;SDS011;30134;47.866;-4.222;2023-09-12T02:13:01;61.58;;;47.28;;
44428;SDS011;30134;47.866;-4.222;2023-09-12T02:15:28;62.15;;;48.00;;
44428;SDS011;30134;47.866;-4.222;2023-09-12T02:17:54;62.72;;;45.63;;
44428;SDS011;30134;47.866;-4.222;2023-09-12T02:20:19;54.42;;;41.15;;
44428;SDS011;30134;47.866;-4.222;2023-09-12T02:22:46;53.92;;;41.85;;
44428;SDS011;30134;47.866;-4.222;2023-09-12T02:25:12;52.63;;;38.95;;
44428;SDS011;30134;47.866;-4.222;2023-09-12T02:27:38;47.72;;;37.38;;
44428;SDS011;30134;47.866;-4.222;2023-09-12T02:30:04;45.97;;;34.47;;
44428;SDS011;30134;47.866;-4.222;2023-09-12T02:32:31;38.15;;;30.65;;
44428;SDS011;30134;47.866;-4.222;2023-09-12T02:34:57;36.38;;;28.67;;
44428;SDS011;30134;47.866;-4.222;2023-09-12T02:37:23;37.90;;;28.50;;
44428;SDS011;30134;47.866;-4.222;2023-09-12T02:39:49;36.58;;;28.17;;
44428;SDS011;30134;47.866;-4.222;2023-09-12T02:42:15;35.47;;;27.10;;
44428;SDS011;30134;47.866;-4.222;2023-09-12T02:44:41;32.78;;;25.45;;
44428;SDS011;30134;47.866;-4.222;2023-09-12T02:47:07;32.22;;;24.67;;
44428;SDS011;30134;47.866;-4.222;2023-09-12T02:49:33;31.48;;;24.38;;
44428;SDS011;30134;47.866;-4.222;2023-09-12T02:51:59;26.08;;;21.67;;
44428;SDS011;30134;47.866;-4.222;2023-09-12T02:54:25;27.77;;;21.55;;
44428;SDS011;30134;47.866;-4.222;2023-09-12T02:56:51;27.55;;;20.35;;
44428;SDS011;30134;47.866;-4.222;2023-09-12T02:59:17;26.58;;;19.20;;
44428;SDS011;30134;47.866;-4.222;2023-09-12T03:01:44;23.30;;;18.30;;
44428;SDS011;30134;47.866;-4.222;2023-09-12T03:04:10;21.05;;;17.30;;
44428;SDS011;30134;47.866;-4.222;2023-09-12T03:06:36;22.23;;;17.60;;
44428;SDS011;30134;47.866;-4.222;2023-09-12T03:09:02;19.83;;;15.88;;
44428;SDS011;30134;47.866;-4.222;2023-09-12T03:11:29;19.85;;;15.40;;
44428;SDS011;30134;47.866;-4.222;2023-09-12T03:13:55;20.15;;;15.10;;
44428;SDS011;30134;47.866;-4.222;2023-09-12T03:16:21;16.73;;;14.15;;
44428;SDS011;30134;47.866;-4.222;2023-09-12T03:18:49;17.20;;;13.65;;
44428;SDS011;30134;47.866;-4.222;2023-09-12T03:21:15;16.00;;;12.57;;
44428;SDS011;30134;47.866;-4.222;2023-09-12T03:23:41;14.48;;;12.05;;
44428;SDS011;30134;47.866;-4.222;2023-09-12T03:26:06;14.15;;;11.65;;
44428;SDS011;30134;47.866;-4.222;2023-09-12T03:28:32;14.23;;;11.20;;
44428;SDS011;30134;47.866;-4.222;2023-09-12T03:31:09;14.32;;;11.15;;
44428;SDS011;30134;47.866;-4.222;2023-09-12T03:33:39;13.75;;;10.07;;
44428;SDS011;30134;47.866;-4.222;2023-09-12T03:36:06;12.98;;;9.95;;
44428;SDS011;30134;47.866;-4.222;2023-09-12T03:38:33;12.18;;;9.60;;
44428;SDS011;30134;47.866;-4.222;2023-09-12T03:41:00;12.68;;;9.40;;
44428;SDS011;30134;47.866;-4.222;2023-09-12T03:43:27;12.18;;;8.93;;
44428;SDS011;30134;47.866;-4.222;2023-09-12T03:45:53;8.93;;;7.65;;
44428;SDS011;30134;47.866;-4.222;2023-09-12T03:48:19;11.00;;;8.20;;
44428;SDS011;30134;47.866;-4.222;2023-09-12T03:50:45;9.55;;;7.57;;
44428;SDS011;30134;47.866;-4.222;2023-09-12T03:53:11;9.65;;;7.30;;
44428;SDS011;30134;47.866;-4.222;2023-09-12T03:55:39;8.60;;;6.75;;
44428;SDS011;30134;47.866;-4.222;2023-09-12T03:58:08;7.63;;;6.63;;
44428;SDS011;30134;47.866;-4.222;2023-09-12T04:00:34;7.60;;;6.10;;
44428;SDS011;30134;47.866;-4.222;2023-09-12T04:03:00;7.30;;;6.40;;
44428;SDS011;30134;47.866;-4.222;2023-09-12T04:05:26;7.85;;;6.03;;
44428;SDS011;30134;47.866;-4.222;2023-09-12T04:07:52;7.50;;;6.18;;
44428;SDS011;30134;47.866;-4.222;2023-09-12T04:10:21;6.95;;;5.20;;
44428;SDS011;30134;47.866;-4.222;2023-09-12T04:12:47;6.05;;;5.13;;
44428;SDS011;30134;47.866;-4.222;2023-09-12T04:15:13;6.55;;;5.38;;
44428;SDS011;30134;47.866;-4.222;2023-09-12T04:17:39;5.65;;;4.90;;
44428;SDS011;30134;47.866;-4.222;2023-09-12T04:20:05;4.95;;;4.40;;
44428;SDS011;30134;47.866;-4.222;2023-09-12T04:22:32;5.68;;;4.60;;
44428;SDS011;30134;47.866;-4.222;2023-09-12T04:24:58;5.32;;;4.47;;
44428;SDS011;30134;47.866;-4.222;2023-09-12T04:27:24;5.20;;;4.28;;
44428;SDS011;30134;47.866;-4.222;2023-09-12T04:29:50;5.25;;;4.18;;
44428;SDS011;30134;47.866;-4.222;2023-09-12T04:32:16;4.30;;;3.90;;
44428;SDS011;30134;47.866;-4.222;2023-09-12T04:34:48;4.88;;;4.30;;
44428;SDS011;30134;47.866;-4.222;2023-09-12T04:37:17;5.75;;;3.88;;
44428;SDS011;30134;47.866;-4.222;2023-09-12T04:39:43;5.40;;;3.55;;
44428;SDS011;30134;47.866;-4.222;2023-09-12T04:42:10;4.10;;;3.70;;
44428;SDS011;30134;47.866;-4.222;2023-09-12T04:44:36;5.07;;;3.90;;
44428;SDS011;30134;47.866;-4.222;2023-09-12T04:47:04;4.45;;;3.30;;
44428;SDS011;30134;47.866;-4.222;2023-09-12T04:49:30;3.80;;;3.20;;
44428;SDS011;30134;47.866;-4.222;2023-09-12T04:51:56;5.30;;;3.65;;
44428;SDS011;30134;47.866;-4.222;2023-09-12T04:54:25;4.35;;;3.42;;
44428;SDS011;30134;47.866;-4.222;2023-09-12T04:56:51;3.70;;;3.30;;
44428;SDS011;30134;47.866;-4.222;2023-09-12T04:59:18;5.45;;;3.30;;
44428;SDS011;30134;47.866;-4.222;2023-09-12T05:01:44;4.28;;;3.00;;
44428;SDS011;30134;47.866;-4.222;2023-09-12T05:04:10;4.18;;;3.13;;
44428;SDS011;30134;47.866;-4.222;2023-09-12T05:06:36;4.35;;;2.83;;
44428;SDS011;30134;47.866;-4.222;2023-09-12T05:09:02;5.93;;;3.47;;
44428;SDS011;30134;47.866;-4.222;2023-09-12T05:11:30;4.07;;;3.15;;
44428;SDS011;30134;47.866;-4.222;2023-09-12T05:13:56;3.53;;;2.95;;
44428;SDS011;30134;47.866;-4.222;2023-09-12T05:16:22;4.20;;;2.83;;
44428;SDS011;30134;47.866;-4.222;2023-09-12T05:18:47;3.05;;;2.55;;
44428;SDS011;30134;47.866;-4.222;2023-09-12T05:21:14;3.17;;;2.30;;
44428;SDS011;30134;47.866;-4.222;2023-09-12T05:23:41;3.10;;;2.55;;
44428;SDS011;30134;47.866;-4.222;2023-09-12T05:26:07;3.63;;;2.97;;
44428;SDS011;30134;47.866;-4.222;2023-09-12T05:28:33;6.20;;;2.83;;
44428;SDS011;30134;47.866;-4.222;2023-09-12T05:31:00;4.97;;;2.58;;
44428;SDS011;30134;47.866;-4.222;2023-09-12T05:33:26;4.03;;;2.70;;
44428;SDS011;30134;47.866;-4.222;2023-09-12T05:35:52;3.72;;;2.42;;
44428;SDS011;30134;47.866;-4.222;2023-09-12T05:38:18;7.47;;;2.80;;
44428;SDS011;30134;47.866;-4.222;2023-09-12T05:40:44;4.78;;;2.65;;
44428;SDS011;30134;47.866;-4.222;2023-09-12T05:43:10;3.63;;;2.72;;
44428;SDS011;30134;47.866;-4.222;2023-09-12T05:45:36;2.88;;;2.58;;
44428;SDS011;30134;47.866;-4.222;2023-09-12T05:48:02;3.15;;;2.42;;
44428;SDS011;30134;47.866;-4.222;2023-09-12T05:50:28;4.45;;;2.40;;
44428;SDS011;30134;47.866;-4.222;2023-09-12T05:52:54;3.47;;;2.42;;
44428;SDS011;30134;47.866;-4.222;2023-09-12T05:55:23;5.07;;;2.40;;
44428;SDS011;30134;47.866;-4.222;2023-09-12T05:57:50;4.32;;;2.58;;
44428;SDS011;30134;47.866;-4.222;2023-09-12T06:00:19;2.88;;;2.33;;
44428;SDS011;30134;47.866;-4.222;2023-09-12T06:02:46;3.15;;;2.40;;
44428;SDS011;30134;47.866;-4.222;2023-09-12T06:05:14;5.47;;;2.63;;
44428;SDS011;30134;47.866;-4.222;2023-09-12T06:07:40;2.53;;;2.20;;
44428;SDS011;30134;47.866;-4.222;2023-09-12T06:10:07;2.75;;;2.20;;
44428;SDS011;30134;47.866;-4.222;2023-09-12T06:12:34;3.38;;;2.70;;
44428;SDS011;30134;47.866;-4.222;2023-09-12T06:15:01;2.63;;;2.00;;
44428;SDS011;30134;47.866;-4.222;2023-09-12T06:17:29;2.80;;;2.20;;
44428;SDS011;30134;47.866;-4.222;2023-09-12T06:19:56;2.65;;;2.30;;
44428;SDS011;30134;47.866;-4.222;2023-09-12T06:22:22;2.30;;;1.98;;
44428;SDS011;30134;47.866;-4.222;2023-09-12T06:24:50;3.78;;;2.38;;
44428;SDS011;30134;47.866;-4.222;2023-09-12T06:27:17;2.58;;;2.00;;
44428;SDS011;30134;47.866;-4.222;2023-09-12T06:29:46;3.03;;;2.38;;
44428;SDS011;30134;47.866;-4.222;2023-09-12T06:32:16;4.65;;;3.33;;
44428;SDS011;30134;47.866;-4.222;2023-09-12T06:34:43;3.15;;;2.50;;
44428;SDS011;30134;47.866;-4.222;2023-09-12T06:37:10;3.53;;;2.50;;
44428;SDS011;30134;47.866;-4.222;2023-09-12T06:39:37;3.28;;;2.50;;
44428;SDS011;30134;47.866;-4.222;2023-09-12T06:42:03;4.25;;;2.42;;
44428;SDS011;30134;47.866;-4.222;2023-09-12T06:44:29;4.18;;;2.00;;
44428;SDS011;30134;47.866;-4.222;2023-09-12T06:46:55;3.22;;;2.10;;
44428;SDS011;30134;47.866;-4.222;2023-09-12T06:49:21;4.43;;;2.08;;
44428;SDS011;30134;47.866;-4.222;2023-09-12T06:51:47;4.20;;;2.13;;
44428;SDS011;30134;47.866;-4.222;2023-09-12T06:54:13;4.00;;;2.10;;
44428;SDS011;30134;47.866;-4.222;2023-09-12T06:56:40;3.10;;;2.05;;
44428;SDS011;30134;47.866;-4.222;2023-09-12T06:59:07;2.38;;;2.03;;
44428;SDS011;30134;47.866;-4.222;2023-09-12T07:01:34;2.80;;;1.95;;
44428;SDS011;30134;47.866;-4.222;2023-09-12T07:04:00;3.58;;;2.15;;
44428;SDS011;30134;47.866;-4.222;2023-09-12T07:06:27;4.28;;;2.00;;
44428;SDS011;30134;47.866;-4.222;2023-09-12T07:08:52;2.78;;;2.08;;
44428;SDS011;30134;47.866;-4.222;2023-09-12T07:11:18;3.67;;;1.95;;
44428;SDS011;30134;47.866;-4.222;2023-09-12T07:13:44;2.88;;;2.05;;
44428;SDS011;30134;47.866;-4.222;2023-09-12T07:16:11;3.15;;;2.38;;
44428;SDS011;30134;47.866;-4.222;2023-09-12T07:18:37;3.75;;;2.25;;
44428;SDS011;30134;47.866;-4.222;2023-09-12T07:21:04;2.28;;;1.83;;
44428;SDS011;30134;47.866;-4.222;2023-09-12T07:23:31;5.22;;;2.13;;
44428;SDS011;30134;47.866;-4.222;2023-09-12T07:25:57;3.67;;;2.28;;
44428;SDS011;30134;47.866;-4.222;2023-09-12T07:28:24;3.03;;;1.98;;
44428;SDS011;30134;47.866;-4.222;2023-09-12T07:30:52;2.53;;;2.10;;
44428;SDS011;30134;47.866;-4.222;2023-09-12T07:33:19;3.17;;;2.10;;
44428;SDS011;30134;47.866;-4.222;2023-09-12T07:35:46;3.38;;;2.10;;
44428;SDS011;30134;47.866;-4.222;2023-09-12T07:38:13;2.47;;;2.00;;
44428;SDS011;30134;47.866;-4.222;2023-09-12T07:40:42;3.35;;;2.10;;
44428;SDS011;30134;47.866;-4.222;2023-09-12T07:43:08;4.40;;;2.00;;
44428;SDS011;30134;47.866;-4.222;2023-09-12T07:45:35;2.70;;;1.95;;
44428;SDS011;30134;47.866;-4.222;2023-09-12T07:48:05;2.38;;;1.85;;
44428;SDS011;30134;47.866;-4.222;2023-09-12T07:50:34;2.85;;;1.88;;
44428;SDS011;30134;47.866;-4.222;2023-09-12T07:53:00;2.83;;;1.70;;
44428;SDS011;30134;47.866;-4.222;2023-09-12T07:55:26;3.80;;;2.10;;
44428;SDS011;30134;47.866;-4.222;2023-09-12T07:57:55;4.70;;;1.92;;
44428;SDS011;30134;47.866;-4.222;2023-09-12T08:00:22;3.45;;;2.08;;
44428;SDS011;30134;47.866;-4.222;2023-09-12T08:02:49;2.25;;;1.90;;
44428;SDS011;30134;47.866;-4.222;2023-09-12T08:05:15;2.70;;;1.73;;
44428;SDS011;30134;47.866;-4.222;2023-09-12T08:07:41;5.15;;;2.05;;
44428;SDS011;30134;47.866;-4.222;2023-09-12T08:10:07;4.20;;;1.70;;
44428;SDS011;30134;47.866;-4.222;2023-09-12T08:12:33;1.98;;;1.70;;
44428;SDS011;30134;47.866;-4.222;2023-09-12T08:15:03;3.35;;;1.92;;
44428;SDS011;30134;47.866;-4.222;2023-09-12T08:17:30;3.65;;;1.83;;
44428;SDS011;30134;47.866;-4.222;2023-09-12T08:19:57;4.28;;;1.90;;
44428;SDS011;30134;47.866;-4.222;2023-09-12T08:22:23;4.28;;;1.90;;
44428;SDS011;30134;47.866;-4.222;2023-09-12T08:24:49;3.00;;;2.10;;
44428;SDS011;30134;47.866;-4.222;2023-09-12T08:27:15;5.82;;;2.10;;
44428;SDS011;30134;47.866;-4.222;2023-09-12T08:29:41;3.35;;;2.00;;
44428;SDS011;30134;47.866;-4.222;2023-09-12T08:32:09;4.55;;;2.33;;
44428;SDS011;30134;47.866;-4.222;2023-09-12T08:34:35;3.65;;;2.03;;
44428;SDS011;30134;47.866;-4.222;2023-09-12T08:37:01;3.55;;;1.98;;
44428;SDS011;30134;47.866;-4.222;2023-09-12T08:39:27;2.95;;;1.83;;
44428;SDS011;30134;47.866;-4.222;2023-09-12T08:42:11;4.88;;;1.90;;
44428;SDS011;30134;47.866;-4.222;2023-09-12T08:44:41;5.30;;;2.05;;
44428;SDS011;30134;47.866;-4.222;2023-09-12T08:47:08;5.95;;;2.30;;
44428;SDS011;30134;47.866;-4.222;2023-09-12T08:49:36;4.53;;;2.13;;
44428;SDS011;30134;47.866;-4.222;2023-09-12T08:52:07;11.68;;;3.55;;
44428;SDS011;30134;47.866;-4.222;2023-09-12T08:54:33;13.15;;;3.75;;
44428;SDS011;30134;47.866;-4.222;2023-09-12T08:57:02;10.80;;;4.43;;
44428;SDS011;30134;47.866;-4.222;2023-09-12T08:59:34;11.95;;;3.72;;
44428;SDS011;30134;47.866;-4.222;2023-09-12T09:02:01;12.85;;;4.20;;
44428;SDS011;30134;47.866;-4.222;2023-09-12T09:04:31;9.50;;;3.92;;
44428;SDS011;30134;47.866;-4.222;2023-09-12T09:06:59;9.63;;;3.50;;
44428;SDS011;30134;47.866;-4.222;2023-09-12T09:09:28;6.75;;;2.78;;
44428;SDS011;30134;47.866;-4.222;2023-09-12T09:11:54;7.38;;;2.63;;
44428;SDS011;30134;47.866;-4.222;2023-09-12T09:14:20;7.35;;;3.05;;
44428;SDS011;30134;47.866;-4.222;2023-09-12T09:16:46;5.40;;;2.90;;
44428;SDS011;30134;47.866;-4.222;2023-09-12T09:19:13;9.35;;;2.88;;
44428;SDS011;30134;47.866;-4.222;2023-09-12T09:21:41;5.90;;;2.50;;
44428;SDS011;30134;47.866;-4.222;2023-09-12T09:24:10;8.07;;;2.63;;
44428;SDS011;30134;47.866;-4.222;2023-09-12T09:26:48;7.05;;;2.70;;
44428;SDS011;30134;47.866;-4.222;2023-09-12T09:29:17;7.47;;;2.13;;
44428;SDS011;30134;47.866;-4.222;2023-09-12T09:31:47;6.00;;;2.45;;
44428;SDS011;30134;47.866;-4.222;2023-09-12T09:34:16;5.97;;;2.78;;
44428;SDS011;30134;47.866;-4.222;2023-09-12T09:36:47;7.13;;;2.17;;
44428;SDS011;30134;47.866;-4.222;2023-09-12T09:39:17;5.55;;;2.53;;
44428;SDS011;30134;47.866;-4.222;2023-09-12T09:41:51;7.07;;;2.65;;
44428;SDS011;30134;47.866;-4.222;2023-09-12T09:44:23;6.18;;;2.38;;
44428;SDS011;30134;47.866;-4.222;2023-09-12T09:46:55;9.52;;;2.72;;
44428;SDS011;30134;47.866;-4.222;2023-09-12T09:49:27;5.47;;;2.25;;
44428;SDS011;30134;47.866;-4.222;2023-09-12T09:51:56;6.40;;;2.10;;
44428;SDS011;30134;47.866;-4.222;2023-09-12T09:54:26;4.65;;;1.98;;
44428;SDS011;30134;47.866;-4.222;2023-09-12T09:56:53;6.13;;;2.42;;
44428;SDS011;30134;47.866;-4.222;2023-09-12T09:59:22;4.95;;;2.40;;
44428;SDS011;30134;47.866;-4.222;2023-09-12T10:01:50;5.53;;;2.25;;
44428;SDS011;30134;47.866;-4.222;2023-09-12T10:04:27;3.67;;;1.90;;
44428;SDS011;30134;47.866;-4.222;2023-09-12T10:06:55;6.35;;;2.42;;
44428;SDS011;30134;47.866;-4.222;2023-09-12T10:09:25;4.70;;;2.15;;
44428;SDS011;30134;47.866;-4.222;2023-09-12T10:11:54;5.72;;;2.20;;
44428;SDS011;30134;47.866;-4.222;2023-09-12T10:14:23;4.38;;;2.08;;
44428;SDS011;30134;47.866;-4.222;2023-09-12T10:16:51;7.72;;;2.30;;
44428;SDS011;30134;47.866;-4.222;2023-09-12T10:19:38;4.00;;;2.25;;
44428;SDS011;30134;47.866;-4.222;2023-09-12T10:24:55;6.07;;;2.45;;
44428;SDS011;30134;47.866;-4.222;2023-09-12T10:27:22;5.50;;;2.55;;
44428;SDS011;30134;47.866;-4.222;2023-09-12T10:29:50;6.25;;;2.60;;
44428;SDS011;30134;47.866;-4.222;2023-09-12T10:32:18;3.95;;;2.22;;
44428;SDS011;30134;47.866;-4.222;2023-09-12T10:34:46;4.85;;;2.60;;
44428;SDS011;30134;47.866;-4.222;2023-09-12T10:37:17;5.40;;;2.53;;
44428;SDS011;30134;47.866;-4.222;2023-09-12T10:39:47;6.80;;;2.30;;
44428;SDS011;30134;47.866;-4.222;2023-09-12T10:42:16;6.30;;;2.53;;
44428;SDS011;30134;47.866;-4.222;2023-09-12T10:44:43;5.28;;;2.38;;
44428;SDS011;30134;47.866;-4.222;2023-09-12T10:47:10;4.28;;;2.45;;
44428;SDS011;30134;47.866;-4.222;2023-09-12T10:49:46;7.18;;;2.72;;
44428;SDS011;30134;47.866;-4.222;2023-09-12T10:52:26;6.32;;;3.60;;
44428;SDS011;30134;47.866;-4.222;2023-09-12T10:54:53;8.38;;;3.33;;
44428;SDS011;30134;47.866;-4.222;2023-09-12T10:57:20;13.75;;;4.28;;
44428;SDS011;30134;47.866;-4.222;2023-09-12T11:02:28;6.93;;;2.92;;
44428;SDS011;30134;47.866;-4.222;2023-09-12T11:04:56;6.60;;;2.67;;
44428;SDS011;30134;47.866;-4.222;2023-09-12T11:12:43;10.85;;;2.70;;
44428;SDS011;30134;47.866;-4.222;2023-09-12T11:15:22;9.07;;;2.83;;
44428;SDS011;30134;47.866;-4.222;2023-09-12T11:18:11;5.55;;;2.53;;
44428;SDS011;30134;47.866;-4.222;2023-09-12T11:21:10;6.57;;;2.40;;
44428;SDS011;30134;47.866;-4.222;2023-09-12T11:23:29;6.43;;;2.58;;
44428;SDS011;30134;47.866;-4.222;2023-09-12T11:26:06;4.93;;;2.20;;
44428;SDS011;30134;47.866;-4.222;2023-09-12T11:28:33;6.82;;;2.20;;
44428;SDS011;30134;47.866;-4.222;2023-09-12T11:30:59;5.32;;;2.30;;
44428;SDS011;30134;47.866;-4.222;2023-09-12T11:33:26;4.60;;;2.10;;
44428;SDS011;30134;47.866;-4.222;2023-09-12T11:35:53;4.15;;;1.98;;
44428;SDS011;30134;47.866;-4.222;2023-09-12T11:38:26;5.05;;;1.92;;
44428;SDS011;30134;47.866;-4.222;2023-09-12T11:40:54;3.25;;;1.48;;
44428;SDS011;30134;47.866;-4.222;2023-09-12T11:43:24;3.17;;;1.77;;
44428;SDS011;30134;47.866;-4.222;2023-09-12T11:45:52;6.90;;;1.90;;
44428;SDS011;30134;47.866;-4.222;2023-09-12T11:48:21;4.95;;;1.90;;
44428;SDS011;30134;47.866;-4.222;2023-09-12T11:50:51;4.38;;;1.80;;
44428;SDS011;30134;47.866;-4.222;2023-09-12T11:53:22;2.55;;;1.60;;
44428;SDS011;30134;47.866;-4.222;2023-09-12T11:55:56;3.70;;;1.27;;
44428;SDS011;30134;47.866;-4.222;2023-09-12T11:58:24;4.72;;;1.65;;
44428;SDS011;30134;47.866;-4.222;2023-09-12T12:00:53;6.75;;;1.77;;
44428;SDS011;30134;47.866;-4.222;2023-09-12T12:03:22;3.75;;;1.33;;
44428;SDS011;30134;47.866;-4.222;2023-09-12T12:05:49;6.15;;;1.70;;
44428;SDS011;30134;47.866;-4.222;2023-09-12T12:08:16;5.32;;;1.60;;
44428;SDS011;30134;47.866;-4.222;2023-09-12T12:10:43;4.60;;;1.50;;
44428;SDS011;30134;47.866;-4.222;2023-09-12T12:13:16;6.32;;;2.30;;
44428;SDS011;30134;47.866;-4.222;2023-09-12T12:15:43;7.45;;;2.35;;
44428;SDS011;30134;47.866;-4.222;2023-09-12T12:18:09;4.53;;;1.65;;
44428;SDS011;30134;47.866;-4.222;2023-09-12T12:20:36;5.68;;;1.63;;
44428;SDS011;30134;47.866;-4.222;2023-09-12T12:23:02;5.28;;;1.60;;
44428;SDS011;30134;47.866;-4.222;2023-09-12T12:25:31;5.53;;;1.55;;
44428;SDS011;30134;47.866;-4.222;2023-09-12T12:28:00;8.65;;;2.53;;
44428;SDS011;30134;47.866;-4.222;2023-09-12T12:30:31;7.95;;;2.00;;
44428;SDS011;30134;47.866;-4.222;2023-09-12T12:33:02;7.93;;;2.90;;
44428;SDS011;30134;47.866;-4.222;2023-09-12T12:35:33;9.68;;;3.60;;
44428;SDS011;30134;47.866;-4.222;2023-09-12T12:38:02;22.23;;;7.57;;
44428;SDS011;30134;47.866;-4.222;2023-09-12T12:40:29;18.73;;;6.55;;
44428;SDS011;30134;47.866;-4.222;2023-09-12T12:42:55;10.65;;;3.60;;
44428;SDS011;30134;47.866;-4.222;2023-09-12T12:45:21;7.65;;;3.10;;
44428;SDS011;30134;47.866;-4.222;2023-09-12T12:47:58;10.32;;;3.05;;
44428;SDS011;30134;47.866;-4.222;2023-09-12T12:50:25;7.85;;;2.92;;
44428;SDS011;30134;47.866;-4.222;2023-09-12T12:52:52;7.97;;;2.15;;
44428;SDS011;30134;47.866;-4.222;2023-09-12T12:55:19;6.65;;;2.03;;
44428;SDS011;30134;47.866;-4.222;2023-09-12T12:57:47;6.00;;;2.00;;
44428;SDS011;30134;47.866;-4.222;2023-09-12T13:00:15;5.70;;;2.20;;
44428;SDS011;30134;47.866;-4.222;2023-09-12T13:02:43;8.23;;;2.17;;
44428;SDS011;30134;47.866;-4.222;2023-09-12T13:05:19;9.73;;;1.67;;
44428;SDS011;30134;47.866;-4.222;2023-09-12T13:07:54;5.30;;;2.10;;
44428;SDS011;30134;47.866;-4.222;2023-09-12T13:10:20;6.93;;;1.73;;
44428;SDS011;30134;47.866;-4.222;2023-09-12T13:12:47;4.32;;;1.35;;
44428;SDS011;30134;47.866;-4.222;2023-09-12T13:15:14;5.38;;;1.40;;
44428;SDS011;30134;47.866;-4.222;2023-09-12T13:17:42;4.68;;;1.50;;
44428;SDS011;30134;47.866;-4.222;2023-09-12T13:20:08;7.95;;;1.55;;
44428;SDS011;30134;47.866;-4.222;2023-09-12T13:22:35;4.15;;;1.63;;
44428;SDS011;30134;47.866;-4.222;2023-09-12T13:25:02;11.60;;;2.90;;
44428;SDS011;30134;47.866;-4.222;2023-09-12T13:27:29;6.50;;;2.30;;
44428;SDS011;30134;47.866;-4.222;2023-09-12T13:29:55;4.65;;;1.33;;
44428;SDS011;30134;47.866;-4.222;2023-09-12T13:32:21;6.25;;;1.48;;
44428;SDS011;30134;47.866;-4.222;2023-09-12T13:34:47;6.78;;;1.35;;
44428;SDS011;30134;47.866;-4.222;2023-09-12T13:37:15;6.05;;;1.30;;
44428;SDS011;30134;47.866;-4.222;2023-09-12T13:39:42;3.55;;;1.40;;
44428;SDS011;30134;47.866;-4.222;2023-09-12T13:42:14;8.68;;;1.70;;
44428;SDS011;30134;47.866;-4.222;2023-09-12T13:44:45;7.25;;;1.80;;
44428;SDS011;30134;47.866;-4.222;2023-09-12T13:47:12;6.72;;;1.80;;
44428;SDS011;30134;47.866;-4.222;2023-09-12T13:49:46;6.10;;;2.00;;
44428;SDS011;30134;47.866;-4.222;2023-09-12T13:52:12;8.02;;;2.15;;
44428;SDS011;30134;47.866;-4.222;2023-09-12T13:54:39;8.18;;;1.92;;
44428;SDS011;30134;47.866;-4.222;2023-09-12T13:57:05;9.25;;;2.42;;
44428;SDS011;30134;47.866;-4.222;2023-09-12T13:59:31;9.10;;;2.45;;
44428;SDS011;30134;47.866;-4.222;2023-09-12T14:01:57;12.07;;;2.47;;
44428;SDS011;30134;47.866;-4.222;2023-09-12T14:04:23;15.40;;;3.00;;
44428;SDS011;30134;47.866;-4.222;2023-09-12T14:06:49;8.88;;;2.58;;
44428;SDS011;30134;47.866;-4.222;2023-09-12T14:09:15;8.18;;;2.40;;
44428;SDS011;30134;47.866;-4.222;2023-09-12T14:11:41;9.20;;;2.20;;
44428;SDS011;30134;47.866;-4.222;2023-09-12T14:14:08;13.07;;;2.75;;
44428;SDS011;30134;47.866;-4.222;2023-09-12T14:16:34;10.70;;;2.53;;
44428;SDS011;30134;47.866;-4.222;2023-09-12T14:19:00;11.90;;;3.15;;
44428;SDS011;30134;47.866;-4.222;2023-09-12T14:21:26;11.70;;;2.60;;
44428;SDS011;30134;47.866;-4.222;2023-09-12T14:23:52;11.30;;;2.55;;
44428;SDS011;30134;47.866;-4.222;2023-09-12T14:26:18;10.15;;;2.70;;
44428;SDS011;30134;47.866;-4.222;2023-09-12T14:28:44;12.25;;;2.80;;
44428;SDS011;30134;47.866;-4.222;2023-09-12T14:31:11;10.07;;;2.53;;
44428;SDS011;30134;47.866;-4.222;2023-09-12T14:33:42;11.07;;;3.50;;
44428;SDS011;30134;47.866;-4.222;2023-09-12T14:36:08;6.38;;;2.38;;
44428;SDS011;30134;47.866;-4.222;2023-09-12T14:38:35;10.13;;;2.50;;
44428;SDS011;30134;47.866;-4.222;2023-09-12T14:41:02;7.70;;;2.17;;